createdAt,value
2022-11-01T00:03:06.063Z,78.35
2022-11-01T00:08:28.484Z,78.60
2022-11-01T00:13:51.158Z,78.94
2022-11-01T00:19:13.762Z,79.12
2022-11-01T00:24:55.760Z,79.30
2022-11-01T00:30:18.237Z,79.44
2022-11-01T00:35:40.193Z,80.16
2022-11-01T00:41:04.742Z,80.12
2022-11-01T00:46:28.308Z,79.90
2022-11-01T00:51:52.434Z,79.05
2022-11-01T00:57:14.379Z,79.05
2022-11-01T01:02:37.015Z,78.64
2022-11-01T01:07:59.874Z,79.01
2022-11-01T01:13:23.435Z,79.32
2022-11-01T01:18:45.514Z,80.02
2022-11-01T01:24:07.843Z,79.81
2022-11-01T01:29:30.393Z,79.96
2022-11-01T01:34:52.728Z,80.44
2022-11-01T01:40:14.679Z,80.19
2022-11-01T01:45:40.860Z,80.24
2022-11-01T01:51:10.319Z,80.26
2022-11-01T01:56:38.768Z,80.28
2022-11-01T02:02:00.971Z,80.36
2022-11-01T02:07:25.095Z,80.42
2022-11-01T02:12:51.785Z,80.59
2022-11-01T02:18:25.616Z,80.93
2022-11-01T02:24:02.928Z,81.36
2022-11-01T02:29:39.621Z,81.69
2022-11-01T02:35:20.579Z,81.87
2022-11-01T02:41:08.566Z,82.23
2022-11-01T02:46:59.166Z,82.51
2022-11-01T02:52:26.096Z,83.04
2022-11-01T02:57:49.431Z,83.48
2022-11-01T03:03:22.768Z,83.90
2022-11-01T03:08:49.854Z,84.24
2022-11-01T03:14:33.579Z,84.53
2022-11-01T03:20:47.484Z,84.89
2022-11-01T03:26:17.232Z,84.95
2022-11-01T03:31:41.125Z,85.14
2022-11-01T03:37:11.871Z,84.94
2022-11-01T03:42:37.523Z,85.05
2022-11-01T03:48:11.079Z,85.44
2022-11-01T03:53:40.953Z,85.41
2022-11-01T03:59:03.255Z,85.55
2022-11-01T04:04:25.283Z,85.67
2022-11-01T04:09:48.546Z,85.68
2022-11-01T04:15:30.283Z,85.69
2022-11-01T04:20:54.315Z,85.39
2022-11-01T04:26:22.393Z,85.29
2022-11-01T04:31:45.666Z,85.68
2022-11-01T04:37:09.012Z,85.67
2022-11-01T04:42:32.119Z,85.26
2022-11-01T04:48:23.198Z,85.39
2022-11-01T04:53:44.920Z,85.48
2022-11-01T04:59:07.481Z,85.51
2022-11-01T05:04:29.468Z,85.60
2022-11-01T05:09:52.104Z,85.54
2022-11-01T05:15:14.208Z,85.68
2022-11-01T05:20:35.750Z,85.67
2022-11-01T05:25:57.990Z,85.62
2022-11-01T05:31:20.775Z,85.51
2022-11-01T05:36:44.241Z,85.59
2022-11-01T05:42:06.034Z,85.16
2022-11-01T05:47:28.385Z,84.63
2022-11-01T05:52:50.702Z,84.78
2022-11-01T05:59:25.029Z,84.35
2022-11-01T06:06:40.159Z,84.08
2022-11-01T06:13:36.929Z,84.01
2022-11-01T06:20:36.467Z,83.63
2022-11-01T06:26:22.634Z,83.77
2022-11-01T06:31:54.321Z,83.81
2022-11-01T06:37:42.388Z,83.97
2022-11-01T06:43:26.445Z,88.63
2022-11-01T06:49:22.541Z,88.57
2022-11-01T06:55:29.685Z,88.68
2022-11-01T07:01:09.648Z,89.44
2022-11-01T07:06:58.330Z,87.20
2022-11-01T07:12:47.279Z,84.55
2022-11-01T07:18:32.494Z,83.51
2022-11-01T07:30:29.766Z,79.55
2022-11-01T07:36:05.597Z,78.54
2022-11-01T07:47:50.611Z,79.00
2022-11-01T07:53:35.877Z,77.64
2022-11-01T07:59:13.210Z,79.32
2022-11-01T08:05:01.633Z,75.13
2022-11-01T08:10:49.512Z,74.34
2022-11-01T08:22:35.215Z,73.70
2022-11-01T08:28:21.732Z,74.75
2022-11-01T08:53:16.254Z,71.47
2022-11-01T08:59:04.316Z,74.40
2022-11-01T09:11:23.456Z,68.10
2022-11-01T09:18:05.521Z,66.58
2022-11-01T09:24:49.182Z,65.21
2022-11-01T09:31:01.545Z,64.79
2022-11-01T10:07:58.545Z,68.96
2022-11-01T10:25:45.581Z,72.21
2022-11-01T10:38:03.892Z,71.84
2022-11-01T10:55:55.904Z,69.98
2022-11-01T11:08:45.588Z,68.68
2022-11-01T11:14:46.578Z,68.12
2022-11-01T11:34:59.179Z,68.95
2022-11-01T11:59:53.086Z,67.39
2022-11-01T12:06:00.556Z,67.51
2022-11-01T12:12:06.755Z,66.91
2022-11-01T12:17:58.199Z,65.61
2022-11-01T12:24:02.050Z,67.03
2022-11-01T12:30:31.320Z,68.08
2022-11-01T12:42:59.033Z,67.11
2022-11-01T13:08:12.670Z,66.93
2022-11-01T13:26:26.773Z,67.07
2022-11-01T13:32:29.594Z,67.46
2022-11-01T13:38:13.720Z,67.53
2022-11-01T13:43:58.895Z,67.32
2022-11-01T14:14:09.013Z,65.55
2022-11-01T14:28:18.330Z,68.84
2022-11-01T14:43:07.749Z,70.93
2022-11-01T15:04:52.571Z,72.96
2022-11-01T15:11:40.816Z,72.64
2022-11-01T15:18:00.153Z,73.10
2022-11-01T15:23:33.596Z,73.88
2022-11-01T15:29:01.260Z,74.62
2022-11-01T15:34:51.102Z,75.01
2022-11-01T15:40:46.891Z,75.17
2022-11-01T15:46:12.826Z,75.88
2022-11-01T15:52:18.166Z,75.27
2022-11-01T16:05:32.290Z,77.20
2022-11-01T16:10:54.078Z,77.70
2022-11-01T16:16:16.784Z,78.12
2022-11-01T16:22:40.985Z,78.61
2022-11-01T16:29:29.503Z,79.26
2022-11-01T16:36:24.452Z,79.60
2022-11-01T16:43:07.073Z,80.23
2022-11-01T16:50:01.213Z,81.11
2022-11-01T17:04:03.798Z,82.08
2022-11-01T17:11:01.495Z,82.34
2022-11-01T17:16:44.898Z,82.53
2022-11-01T17:22:12.516Z,82.47
2022-11-01T17:27:33.810Z,82.73
2022-11-01T17:33:30.443Z,82.69
2022-11-01T17:38:51.623Z,82.89
2022-11-01T17:44:14.155Z,83.02
2022-11-01T17:50:47.918Z,83.09
2022-11-01T17:57:30.026Z,83.07
2022-11-01T18:04:12.057Z,83.11
2022-11-01T18:09:54.806Z,83.11
2022-11-01T18:15:25.417Z,83.08
2022-11-01T18:21:21.689Z,83.00
2022-11-01T18:26:45.381Z,83.27
2022-11-01T18:32:25.844Z,82.95
2022-11-01T18:38:16.997Z,83.19
2022-11-01T18:43:39.537Z,83.38
2022-11-01T18:50:02.534Z,83.47
2022-11-01T19:27:17.219Z,84.89
2022-11-01T19:40:39.649Z,85.21
2022-11-01T19:48:23.888Z,84.83
2022-11-01T19:55:18.408Z,84.81
2022-11-01T20:02:15.671Z,84.35
2022-11-01T20:09:03.655Z,84.61
2022-11-01T20:15:30.643Z,84.85
2022-11-01T20:21:58.318Z,85.35
2022-11-01T20:28:02.805Z,85.15
2022-11-01T20:34:25.673Z,85.29
2022-11-01T20:40:50.211Z,85.27
2022-11-01T20:47:32.284Z,85.33
2022-11-01T20:54:17.961Z,85.94
2022-11-01T21:01:01.004Z,86.01
2022-11-01T21:07:46.946Z,86.30
2022-11-01T21:14:39.102Z,86.52
2022-11-01T21:21:33.279Z,86.37
2022-11-01T21:28:22.079Z,86.44
2022-11-01T21:35:06.358Z,86.39
2022-11-01T21:41:56.717Z,86.37
2022-11-01T21:48:18.211Z,86.26
2022-11-01T22:02:08.286Z,86.11
2022-11-01T22:08:49.929Z,86.26
2022-11-01T22:14:48.310Z,86.03
2022-11-01T22:20:26.830Z,85.62
2022-11-01T22:26:29.307Z,85.20
2022-11-01T22:32:49.490Z,84.95
2022-11-01T22:39:14.369Z,85.12
2022-11-01T22:45:04.340Z,85.22
2022-11-01T22:59:29.356Z,85.02
2022-11-01T23:28:56.058Z,84.81
